<?xml version="1.0" encoding="UTF-8" standalone="no" ?>
<gpx xmlns="http://www.topografix.com/GPX/1/1" creator="MapSource 6.11.6" version="1.1" xmlns:xsi="http://www.w3.org/2001/XMLSchema-instance" xsi:schemaLocation="http://www.topografix.com/GPX/1/1 http://www.topografix.com/GPX/1/1/gpx.xsd">

  <metadata>
    <link href="http://www.garmin.com">
      <text>Garmin International</text>
    </link>
    <time>2009-02-19T19:27:15Z</time>
    <bounds maxlat="50.680427" maxlon="6.413353" minlat="50.654630" minlon="6.352270"/>
  </metadata>

  <trk>
    <name>RW Schmidt-Kalltal</name>
    <extensions>
      <gpxx:TrackExtension xmlns:gpxx="http://www.garmin.com/xmlschemas/GpxExtensions/v3" xmlns:xsi="http://www.w3.org/2001/XMLSchema-instance" xsi:schemaLocation="http://www.garmin.com/xmlschemas/GpxExtensions/v3 http://www.garmin.com/xmlschemas/GpxExtensions/v3/GpxExtensionsv3.xsd">
        <gpxx:DisplayColor>White</gpxx:DisplayColor>
      </gpxx:TrackExtension>
    </extensions>
    <trkseg>
      <trkpt lat="50.656382" lon="6.413353">
        <ele>446.670000</ele>
        <time>2009-02-19T20:25:53Z</time>
      </trkpt>
      <trkpt lat="50.656175" lon="6.413353">
        <ele>447.150000</ele>
        <time>2009-02-19T20:26:14Z</time>
      </trkpt>
      <trkpt lat="50.655973" lon="6.413282">
        <ele>447.150000</ele>
        <time>2009-02-19T20:26:36Z</time>
      </trkpt>
      <trkpt lat="50.655692" lon="6.413063">
        <ele>445.228000</ele>
        <time>2009-02-19T20:27:09Z</time>
      </trkpt>
      <trkpt lat="50.655693" lon="6.412863">
        <ele>444.747000</ele>
        <time>2009-02-19T20:27:22Z</time>
      </trkpt>
      <trkpt lat="50.655813" lon="6.412007">
        <ele>443.786000</ele>
        <time>2009-02-19T20:28:21Z</time>
      </trkpt>
      <trkpt lat="50.655843" lon="6.411300">
        <ele>445.228000</ele>
        <time>2009-02-19T20:29:08Z</time>
      </trkpt>
      <trkpt lat="50.655823" lon="6.410573">
        <ele>449.554000</ele>
        <time>2009-02-19T20:29:57Z</time>
      </trkpt>
      <trkpt lat="50.655742" lon="6.409427">
        <ele>456.283000</ele>
        <time>2009-02-19T20:31:14Z</time>
      </trkpt>
      <trkpt lat="50.655743" lon="6.408913">
        <ele>461.089000</ele>
        <time>2009-02-19T20:31:48Z</time>
      </trkpt>
      <trkpt lat="50.655877" lon="6.407038">
        <ele>463.973000</ele>
        <time>2009-02-19T20:33:54Z</time>
      </trkpt>
      <trkpt lat="50.655918" lon="6.406912">
        <ele>463.493000</ele>
        <time>2009-02-19T20:34:04Z</time>
      </trkpt>
      <trkpt lat="50.656048" lon="6.406872">
        <ele>463.012000</ele>
        <time>2009-02-19T20:34:18Z</time>
      </trkpt>
      <trkpt lat="50.656577" lon="6.407072">
        <ele>465.416000</ele>
        <time>2009-02-19T20:35:15Z</time>
      </trkpt>
      <trkpt lat="50.656618" lon="6.406943">
        <ele>465.416000</ele>
        <time>2009-02-19T20:35:25Z</time>
      </trkpt>
      <trkpt lat="50.656920" lon="6.405397">
        <ele>466.377000</ele>
        <time>2009-02-19T20:37:13Z</time>
      </trkpt>
      <trkpt lat="50.657118" lon="6.404378">
        <ele>469.741000</ele>
        <time>2009-02-19T20:38:24Z</time>
      </trkpt>
      <trkpt lat="50.657135" lon="6.403748">
        <ele>470.703000</ele>
        <time>2009-02-19T20:39:06Z</time>
      </trkpt>
      <trkpt lat="50.657050" lon="6.403083">
        <ele>470.703000</ele>
        <time>2009-02-19T20:39:51Z</time>
      </trkpt>
      <trkpt lat="50.656867" lon="6.402180">
        <ele>471.183000</ele>
        <time>2009-02-19T20:40:55Z</time>
      </trkpt>
      <trkpt lat="50.656527" lon="6.401140">
        <ele>470.222000</ele>
        <time>2009-02-19T20:42:13Z</time>
      </trkpt>
      <trkpt lat="50.656345" lon="6.400865">
        <ele>468.780000</ele>
        <time>2009-02-19T20:42:39Z</time>
      </trkpt>
      <trkpt lat="50.656043" lon="6.400572">
        <ele>467.338000</ele>
        <time>2009-02-19T20:43:17Z</time>
      </trkpt>
      <trkpt lat="50.655483" lon="6.400175">
        <ele>467.338000</ele>
        <time>2009-02-19T20:44:21Z</time>
      </trkpt>
      <trkpt lat="50.655250" lon="6.399952">
        <ele>467.338000</ele>
        <time>2009-02-19T20:44:50Z</time>
      </trkpt>
      <trkpt lat="50.654905" lon="6.399497">
        <ele>467.819000</ele>
        <time>2009-02-19T20:45:38Z</time>
      </trkpt>
      <trkpt lat="50.654760" lon="6.399243">
        <ele>467.819000</ele>
        <time>2009-02-19T20:46:00Z</time>
      </trkpt>
      <trkpt lat="50.654630" lon="6.398645">
        <ele>470.222000</ele>
        <time>2009-02-19T20:46:43Z</time>
      </trkpt>
      <trkpt lat="50.654922" lon="6.397908">
        <ele>477.912000</ele>
        <time>2009-02-19T20:47:41Z</time>
      </trkpt>
      <trkpt lat="50.655117" lon="6.397507">
        <ele>482.239000</ele>
        <time>2009-02-19T20:48:14Z</time>
      </trkpt>
      <trkpt lat="50.655222" lon="6.397500">
        <ele>483.200000</ele>
        <time>2009-02-19T20:48:25Z</time>
      </trkpt>
      <trkpt lat="50.655535" lon="6.397738">
        <ele>484.161000</ele>
        <time>2009-02-19T20:49:02Z</time>
      </trkpt>
      <trkpt lat="50.655883" lon="6.398052">
        <ele>487.045000</ele>
        <time>2009-02-19T20:49:44Z</time>
      </trkpt>
      <trkpt lat="50.656007" lon="6.397995">
        <ele>487.045000</ele>
        <time>2009-02-19T20:49:58Z</time>
      </trkpt>
      <trkpt lat="50.656853" lon="6.396805">
        <ele>492.332000</ele>
        <time>2009-02-19T20:51:57Z</time>
      </trkpt>
      <trkpt lat="50.657408" lon="6.395970">
        <ele>495.697000</ele>
        <time>2009-02-19T20:53:18Z</time>
      </trkpt>
      <trkpt lat="50.658140" lon="6.394900">
        <ele>495.216000</ele>
        <time>2009-02-19T20:55:03Z</time>
      </trkpt>
      <trkpt lat="50.659587" lon="6.393623">
        <ele>486.564000</ele>
        <time>2009-02-19T20:57:58Z</time>
      </trkpt>
      <trkpt lat="50.660172" lon="6.393140">
        <ele>483.200000</ele>
        <time>2009-02-19T20:59:08Z</time>
      </trkpt>
      <trkpt lat="50.660393" lon="6.391872">
        <ele>478.874000</ele>
        <time>2009-02-19T21:00:35Z</time>
      </trkpt>
      <trkpt lat="50.660507" lon="6.391508">
        <ele>478.393000</ele>
        <time>2009-02-19T21:01:02Z</time>
      </trkpt>
      <trkpt lat="50.661230" lon="6.390757">
        <ele>476.471000</ele>
        <time>2009-02-19T21:02:34Z</time>
      </trkpt>
      <trkpt lat="50.661353" lon="6.390690">
        <ele>476.471000</ele>
        <time>2009-02-19T21:02:47Z</time>
      </trkpt>
      <trkpt lat="50.661482" lon="6.390727">
        <ele>475.509000</ele>
        <time>2009-02-19T21:03:01Z</time>
      </trkpt>
      <trkpt lat="50.662410" lon="6.391215">
        <ele>471.664000</ele>
        <time>2009-02-19T21:04:44Z</time>
      </trkpt>
      <trkpt lat="50.662522" lon="6.391225">
        <ele>471.183000</ele>
        <time>2009-02-19T21:04:56Z</time>
      </trkpt>
      <trkpt lat="50.662578" lon="6.391092">
        <ele>470.703000</ele>
        <time>2009-02-19T21:05:07Z</time>
      </trkpt>
      <trkpt lat="50.662908" lon="6.388898">
        <ele>461.570000</ele>
        <time>2009-02-19T21:07:37Z</time>
      </trkpt>
      <trkpt lat="50.662912" lon="6.388760">
        <ele>461.089000</ele>
        <time>2009-02-19T21:07:47Z</time>
      </trkpt>
      <trkpt lat="50.662718" lon="6.388265">
        <ele>458.686000</ele>
        <time>2009-02-19T21:08:25Z</time>
      </trkpt>
      <trkpt lat="50.662333" lon="6.387673">
        <ele>457.244000</ele>
        <time>2009-02-19T21:09:22Z</time>
      </trkpt>
      <trkpt lat="50.662217" lon="6.387363">
        <ele>454.841000</ele>
        <time>2009-02-19T21:09:46Z</time>
      </trkpt>
      <trkpt lat="50.661903" lon="6.386090">
        <ele>447.150000</ele>
        <time>2009-02-19T21:11:17Z</time>
      </trkpt>
      <trkpt lat="50.661758" lon="6.385898">
        <ele>445.708000</ele>
        <time>2009-02-19T21:11:37Z</time>
      </trkpt>
      <trkpt lat="50.661632" lon="6.385880">
        <ele>444.747000</ele>
        <time>2009-02-19T21:11:51Z</time>
      </trkpt>
      <trkpt lat="50.661382" lon="6.385962">
        <ele>442.344000</ele>
        <time>2009-02-19T21:12:18Z</time>
      </trkpt>
      <trkpt lat="50.661153" lon="6.386097">
        <ele>440.421000</ele>
        <time>2009-02-19T21:12:43Z</time>
      </trkpt>
      <trkpt lat="50.660907" lon="6.386450">
        <ele>436.095000</ele>
        <time>2009-02-19T21:13:18Z</time>
      </trkpt>
      <trkpt lat="50.660718" lon="6.386950">
        <ele>431.769000</ele>
        <time>2009-02-19T21:13:57Z</time>
      </trkpt>
      <trkpt lat="50.660397" lon="6.387527">
        <ele>427.443000</ele>
        <time>2009-02-19T21:14:48Z</time>
      </trkpt>
      <trkpt lat="50.660202" lon="6.387758">
        <ele>425.521000</ele>
        <time>2009-02-19T21:15:14Z</time>
      </trkpt>
      <trkpt lat="50.660132" lon="6.387803">
        <ele>424.079000</ele>
        <time>2009-02-19T21:15:22Z</time>
      </trkpt>
      <trkpt lat="50.659950" lon="6.386330">
        <ele>418.311000</ele>
        <time>2009-02-19T21:17:02Z</time>
      </trkpt>
      <trkpt lat="50.659520" lon="6.386265">
        <ele>416.869000</ele>
        <time>2009-02-19T21:17:48Z</time>
      </trkpt>
      <trkpt lat="50.659528" lon="6.385742">
        <ele>413.024000</ele>
        <time>2009-02-19T21:18:23Z</time>
      </trkpt>
      <trkpt lat="50.659913" lon="6.384028">
        <ele>401.488000</ele>
        <time>2009-02-19T21:20:24Z</time>
      </trkpt>
      <trkpt lat="50.660183" lon="6.382825">
        <ele>394.278000</ele>
        <time>2009-02-19T21:21:49Z</time>
      </trkpt>
      <trkpt lat="50.661177" lon="6.381940">
        <ele>383.703000</ele>
        <time>2009-02-19T21:23:50Z</time>
      </trkpt>
      <trkpt lat="50.661940" lon="6.381892">
        <ele>380.339000</ele>
        <time>2009-02-19T21:25:10Z</time>
      </trkpt>
      <trkpt lat="50.662330" lon="6.381863">
        <ele>378.416000</ele>
        <time>2009-02-19T21:25:51Z</time>
      </trkpt>
      <trkpt lat="50.662987" lon="6.381752">
        <ele>375.532000</ele>
        <time>2009-02-19T21:27:01Z</time>
      </trkpt>
      <trkpt lat="50.663272" lon="6.381600">
        <ele>374.090000</ele>
        <time>2009-02-19T21:27:33Z</time>
      </trkpt>
      <trkpt lat="50.663393" lon="6.381510">
        <ele>374.090000</ele>
        <time>2009-02-19T21:27:47Z</time>
      </trkpt>
      <trkpt lat="50.663462" lon="6.381393">
        <ele>373.609000</ele>
        <time>2009-02-19T21:27:57Z</time>
      </trkpt>
      <trkpt lat="50.663460" lon="6.381107">
        <ele>373.609000</ele>
        <time>2009-02-19T21:28:16Z</time>
      </trkpt>
      <trkpt lat="50.663382" lon="6.380577">
        <ele>369.764000</ele>
        <time>2009-02-19T21:28:53Z</time>
      </trkpt>
      <trkpt lat="50.663248" lon="6.379718">
        <ele>366.400000</ele>
        <time>2009-02-19T21:29:52Z</time>
      </trkpt>
      <trkpt lat="50.663325" lon="6.379425">
        <ele>365.919000</ele>
        <time>2009-02-19T21:30:13Z</time>
      </trkpt>
      <trkpt lat="50.663572" lon="6.379620">
        <ele>364.958000</ele>
        <time>2009-02-19T21:30:42Z</time>
      </trkpt>
      <trkpt lat="50.663933" lon="6.380158">
        <ele>361.112000</ele>
        <time>2009-02-19T21:31:34Z</time>
      </trkpt>
      <trkpt lat="50.664260" lon="6.380503">
        <ele>356.786000</ele>
        <time>2009-02-19T21:32:16Z</time>
      </trkpt>
      <trkpt lat="50.664843" lon="6.381237">
        <ele>346.693000</ele>
        <time>2009-02-19T21:33:35Z</time>
      </trkpt>
      <trkpt lat="50.664960" lon="6.381348">
        <ele>345.731000</ele>
        <time>2009-02-19T21:33:49Z</time>
      </trkpt>
      <trkpt lat="50.665088" lon="6.381395">
        <ele>342.847000</ele>
        <time>2009-02-19T21:34:03Z</time>
      </trkpt>
      <trkpt lat="50.666925" lon="6.381162">
        <ele>324.582000</ele>
        <time>2009-02-19T21:37:17Z</time>
      </trkpt>
      <trkpt lat="50.667790" lon="6.381038">
        <ele>315.930000</ele>
        <time>2009-02-19T21:38:48Z</time>
      </trkpt>
      <trkpt lat="50.669535" lon="6.380823">
        <ele>306.798000</ele>
        <time>2009-02-19T21:41:53Z</time>
      </trkpt>
      <trkpt lat="50.670500" lon="6.380790">
        <ele>303.914000</ele>
        <time>2009-02-19T21:43:34Z</time>
      </trkpt>
      <trkpt lat="50.671138" lon="6.380995">
        <ele>299.588000</ele>
        <time>2009-02-19T21:44:43Z</time>
      </trkpt>
      <trkpt lat="50.671397" lon="6.381145">
        <ele>296.704000</ele>
        <time>2009-02-19T21:45:12Z</time>
      </trkpt>
      <trkpt lat="50.672122" lon="6.381747">
        <ele>289.975000</ele>
        <time>2009-02-19T21:46:38Z</time>
      </trkpt>
      <trkpt lat="50.672385" lon="6.382060">
        <ele>288.052000</ele>
        <time>2009-02-19T21:47:13Z</time>
      </trkpt>
      <trkpt lat="50.672500" lon="6.382107">
        <ele>287.091000</ele>
        <time>2009-02-19T21:47:26Z</time>
      </trkpt>
      <trkpt lat="50.672585" lon="6.382027">
        <ele>286.130000</ele>
        <time>2009-02-19T21:47:36Z</time>
      </trkpt>
      <trkpt lat="50.672630" lon="6.381108">
        <ele>280.842000</ele>
        <time>2009-02-19T21:48:38Z</time>
      </trkpt>
      <trkpt lat="50.672695" lon="6.380402">
        <ele>277.958000</ele>
        <time>2009-02-19T21:49:25Z</time>
      </trkpt>
      <trkpt lat="50.672838" lon="6.378502">
        <ele>274.594000</ele>
        <time>2009-02-19T21:51:33Z</time>
      </trkpt>
      <trkpt lat="50.674172" lon="6.375675">
        <ele>271.229000</ele>
        <time>2009-02-19T21:55:28Z</time>
      </trkpt>
      <trkpt lat="50.674312" lon="6.374868">
        <ele>272.671000</ele>
        <time>2009-02-19T21:56:24Z</time>
      </trkpt>
      <trkpt lat="50.674268" lon="6.374360">
        <ele>274.113000</ele>
        <time>2009-02-19T21:56:58Z</time>
      </trkpt>
      <trkpt lat="50.674220" lon="6.374207">
        <ele>274.113000</ele>
        <time>2009-02-19T21:57:10Z</time>
      </trkpt>
      <trkpt lat="50.674012" lon="6.373852">
        <ele>275.074000</ele>
        <time>2009-02-19T21:57:42Z</time>
      </trkpt>
      <trkpt lat="50.673903" lon="6.373765">
        <ele>275.555000</ele>
        <time>2009-02-19T21:57:55Z</time>
      </trkpt>
      <trkpt lat="50.673260" lon="6.373462">
        <ele>278.920000</ele>
        <time>2009-02-19T21:59:06Z</time>
      </trkpt>
      <trkpt lat="50.672745" lon="6.373292">
        <ele>279.400000</ele>
        <time>2009-02-19T22:00:01Z</time>
      </trkpt>
      <trkpt lat="50.671393" lon="6.372845">
        <ele>282.765000</ele>
        <time>2009-02-19T22:02:27Z</time>
      </trkpt>
      <trkpt lat="50.670987" lon="6.372510">
        <ele>285.168000</ele>
        <time>2009-02-19T22:03:15Z</time>
      </trkpt>
      <trkpt lat="50.670597" lon="6.372103">
        <ele>288.052000</ele>
        <time>2009-02-19T22:04:04Z</time>
      </trkpt>
      <trkpt lat="50.670297" lon="6.371658">
        <ele>288.533000</ele>
        <time>2009-02-19T22:04:48Z</time>
      </trkpt>
      <trkpt lat="50.670018" lon="6.371168">
        <ele>290.936000</ele>
        <time>2009-02-19T22:05:32Z</time>
      </trkpt>
      <trkpt lat="50.669568" lon="6.370037">
        <ele>297.665000</ele>
        <time>2009-02-19T22:07:01Z</time>
      </trkpt>
      <trkpt lat="50.669207" lon="6.368650">
        <ele>304.395000</ele>
        <time>2009-02-19T22:08:41Z</time>
      </trkpt>
      <trkpt lat="50.669017" lon="6.367173">
        <ele>307.759000</ele>
        <time>2009-02-19T22:10:21Z</time>
      </trkpt>
      <trkpt lat="50.668932" lon="6.366045">
        <ele>308.240000</ele>
        <time>2009-02-19T22:11:37Z</time>
      </trkpt>
      <trkpt lat="50.669265" lon="6.364995">
        <ele>310.643000</ele>
        <time>2009-02-19T22:12:56Z</time>
      </trkpt>
      <trkpt lat="50.669323" lon="6.364297">
        <ele>310.643000</ele>
        <time>2009-02-19T22:13:43Z</time>
      </trkpt>
      <trkpt lat="50.669315" lon="6.363868">
        <ele>311.124000</ele>
        <time>2009-02-19T22:14:11Z</time>
      </trkpt>
      <trkpt lat="50.669432" lon="6.363080">
        <ele>313.527000</ele>
        <time>2009-02-19T22:15:05Z</time>
      </trkpt>
      <trkpt lat="50.669425" lon="6.362857">
        <ele>313.527000</ele>
        <time>2009-02-19T22:15:20Z</time>
      </trkpt>
      <trkpt lat="50.669333" lon="6.362447">
        <ele>314.488000</ele>
        <time>2009-02-19T22:15:49Z</time>
      </trkpt>
      <trkpt lat="50.668573" lon="6.360750">
        <ele>316.411000</ele>
        <time>2009-02-19T22:18:08Z</time>
      </trkpt>
      <trkpt lat="50.668395" lon="6.360397">
        <ele>317.853000</ele>
        <time>2009-02-19T22:18:38Z</time>
      </trkpt>
      <trkpt lat="50.667928" lon="6.359830">
        <ele>320.256000</ele>
        <time>2009-02-19T22:19:40Z</time>
      </trkpt>
      <trkpt lat="50.667777" lon="6.359750">
        <ele>321.218000</ele>
        <time>2009-02-19T22:19:57Z</time>
      </trkpt>
      <trkpt lat="50.667372" lon="6.359548">
        <ele>324.582000</ele>
        <time>2009-02-19T22:20:42Z</time>
      </trkpt>
      <trkpt lat="50.667233" lon="6.359520">
        <ele>325.544000</ele>
        <time>2009-02-19T22:20:57Z</time>
      </trkpt>
      <trkpt lat="50.665712" lon="6.359435">
        <ele>339.483000</ele>
        <time>2009-02-19T22:23:37Z</time>
      </trkpt>
      <trkpt lat="50.665393" lon="6.358368">
        <ele>330.350000</ele>
        <time>2009-02-19T22:24:56Z</time>
      </trkpt>
      <trkpt lat="50.665805" lon="6.358362">
        <ele>330.831000</ele>
        <time>2009-02-19T22:25:39Z</time>
      </trkpt>
      <trkpt lat="50.666127" lon="6.358285">
        <ele>329.389000</ele>
        <time>2009-02-19T22:26:13Z</time>
      </trkpt>
      <trkpt lat="50.666355" lon="6.358098">
        <ele>326.024000</ele>
        <time>2009-02-19T22:26:41Z</time>
      </trkpt>
      <trkpt lat="50.666477" lon="6.357308">
        <ele>318.334000</ele>
        <time>2009-02-19T22:27:35Z</time>
      </trkpt>
      <trkpt lat="50.666512" lon="6.357002">
        <ele>316.892000</ele>
        <time>2009-02-19T22:27:56Z</time>
      </trkpt>
      <trkpt lat="50.666470" lon="6.356732">
        <ele>315.930000</ele>
        <time>2009-02-19T22:28:14Z</time>
      </trkpt>
      <trkpt lat="50.666435" lon="6.355433">
        <ele>308.240000</ele>
        <time>2009-02-19T22:29:41Z</time>
      </trkpt>
      <trkpt lat="50.666308" lon="6.354655">
        <ele>303.914000</ele>
        <time>2009-02-19T22:30:35Z</time>
      </trkpt>
      <trkpt lat="50.666428" lon="6.354310">
        <ele>301.991000</ele>
        <time>2009-02-19T22:31:01Z</time>
      </trkpt>
      <trkpt lat="50.666013" lon="6.353148">
        <ele>304.875000</ele>
        <time>2009-02-19T22:32:30Z</time>
      </trkpt>
      <trkpt lat="50.665988" lon="6.352903">
        <ele>304.875000</ele>
        <time>2009-02-19T22:32:47Z</time>
      </trkpt>
      <trkpt lat="50.666088" lon="6.352802">
        <ele>303.914000</ele>
        <time>2009-02-19T22:32:59Z</time>
      </trkpt>
      <trkpt lat="50.666267" lon="6.352718">
        <ele>303.914000</ele>
        <time>2009-02-19T22:33:19Z</time>
      </trkpt>
      <trkpt lat="50.666283" lon="6.352422">
        <ele>304.395000</ele>
        <time>2009-02-19T22:33:39Z</time>
      </trkpt>
      <trkpt lat="50.666338" lon="6.352300">
        <ele>304.875000</ele>
        <time>2009-02-19T22:33:49Z</time>
      </trkpt>
      <trkpt lat="50.666453" lon="6.352270">
        <ele>305.837000</ele>
        <time>2009-02-19T22:34:01Z</time>
      </trkpt>
      <trkpt lat="50.666648" lon="6.352855">
        <ele>303.914000</ele>
        <time>2009-02-19T22:34:45Z</time>
      </trkpt>
      <trkpt lat="50.667513" lon="6.354817">
        <ele>301.511000</ele>
        <time>2009-02-19T22:37:25Z</time>
      </trkpt>
      <trkpt lat="50.667930" lon="6.355897">
        <ele>299.588000</ele>
        <time>2009-02-19T22:38:49Z</time>
      </trkpt>
      <trkpt lat="50.668012" lon="6.356068">
        <ele>299.588000</ele>
        <time>2009-02-19T22:39:03Z</time>
      </trkpt>
      <trkpt lat="50.668475" lon="6.356787">
        <ele>298.627000</ele>
        <time>2009-02-19T22:40:12Z</time>
      </trkpt>
      <trkpt lat="50.668935" lon="6.357953">
        <ele>297.185000</ele>
        <time>2009-02-19T22:41:43Z</time>
      </trkpt>
      <trkpt lat="50.669113" lon="6.358603">
        <ele>296.704000</ele>
        <time>2009-02-19T22:42:31Z</time>
      </trkpt>
      <trkpt lat="50.669307" lon="6.359510">
        <ele>294.781000</ele>
        <time>2009-02-19T22:43:35Z</time>
      </trkpt>
      <trkpt lat="50.669487" lon="6.360022">
        <ele>293.820000</ele>
        <time>2009-02-19T22:44:14Z</time>
      </trkpt>
      <trkpt lat="50.669567" lon="6.360388">
        <ele>293.339000</ele>
        <time>2009-02-19T22:44:40Z</time>
      </trkpt>
      <trkpt lat="50.669628" lon="6.361640">
        <ele>292.378000</ele>
        <time>2009-02-19T22:46:03Z</time>
      </trkpt>
      <trkpt lat="50.669708" lon="6.362075">
        <ele>291.897000</ele>
        <time>2009-02-19T22:46:34Z</time>
      </trkpt>
      <trkpt lat="50.669852" lon="6.362455">
        <ele>291.417000</ele>
        <time>2009-02-19T22:47:03Z</time>
      </trkpt>
      <trkpt lat="50.669935" lon="6.362620">
        <ele>290.936000</ele>
        <time>2009-02-19T22:47:17Z</time>
      </trkpt>
      <trkpt lat="50.670558" lon="6.363475">
        <ele>290.456000</ele>
        <time>2009-02-19T22:48:44Z</time>
      </trkpt>
      <trkpt lat="50.670852" lon="6.363947">
        <ele>289.975000</ele>
        <time>2009-02-19T22:49:29Z</time>
      </trkpt>
      <trkpt lat="50.670905" lon="6.364110">
        <ele>289.975000</ele>
        <time>2009-02-19T22:49:41Z</time>
      </trkpt>
      <trkpt lat="50.670957" lon="6.364438">
        <ele>289.975000</ele>
        <time>2009-02-19T22:50:03Z</time>
      </trkpt>
      <trkpt lat="50.670925" lon="6.366782">
        <ele>288.533000</ele>
        <time>2009-02-19T22:52:40Z</time>
      </trkpt>
      <trkpt lat="50.670917" lon="6.367017">
        <ele>288.533000</ele>
        <time>2009-02-19T22:52:56Z</time>
      </trkpt>
      <trkpt lat="50.670803" lon="6.367528">
        <ele>288.052000</ele>
        <time>2009-02-19T22:53:32Z</time>
      </trkpt>
      <trkpt lat="50.670375" lon="6.368990">
        <ele>287.571000</ele>
        <time>2009-02-19T22:55:19Z</time>
      </trkpt>
      <trkpt lat="50.670878" lon="6.370787">
        <ele>287.571000</ele>
        <time>2009-02-19T22:57:30Z</time>
      </trkpt>
      <trkpt lat="50.671067" lon="6.371107">
        <ele>286.610000</ele>
        <time>2009-02-19T22:58:00Z</time>
      </trkpt>
      <trkpt lat="50.671212" lon="6.371332">
        <ele>289.975000</ele>
        <time>2009-02-19T22:58:21Z</time>
      </trkpt>
      <trkpt lat="50.671727" lon="6.371458">
        <ele>297.185000</ele>
        <time>2009-02-19T22:59:16Z</time>
      </trkpt>
      <trkpt lat="50.672112" lon="6.371470">
        <ele>298.627000</ele>
        <time>2009-02-19T22:59:57Z</time>
      </trkpt>
      <trkpt lat="50.672802" lon="6.371312">
        <ele>302.953000</ele>
        <time>2009-02-19T23:01:10Z</time>
      </trkpt>
      <trkpt lat="50.673282" lon="6.371407">
        <ele>304.875000</ele>
        <time>2009-02-19T23:02:01Z</time>
      </trkpt>
      <trkpt lat="50.674343" lon="6.372053">
        <ele>311.124000</ele>
        <time>2009-02-19T23:04:01Z</time>
      </trkpt>
      <trkpt lat="50.674535" lon="6.372208">
        <ele>312.566000</ele>
        <time>2009-02-19T23:04:24Z</time>
      </trkpt>
      <trkpt lat="50.674742" lon="6.372410">
        <ele>314.008000</ele>
        <time>2009-02-19T23:04:49Z</time>
      </trkpt>
      <trkpt lat="50.675125" lon="6.372900">
        <ele>317.372000</ele>
        <time>2009-02-19T23:05:41Z</time>
      </trkpt>
      <trkpt lat="50.675435" lon="6.372858">
        <ele>314.969000</ele>
        <time>2009-02-19T23:06:14Z</time>
      </trkpt>
      <trkpt lat="50.675757" lon="6.372702">
        <ele>310.162000</ele>
        <time>2009-02-19T23:06:49Z</time>
      </trkpt>
      <trkpt lat="50.676160" lon="6.372637">
        <ele>306.798000</ele>
        <time>2009-02-19T23:07:32Z</time>
      </trkpt>
      <trkpt lat="50.676552" lon="6.372445">
        <ele>304.875000</ele>
        <time>2009-02-19T23:08:15Z</time>
      </trkpt>
      <trkpt lat="50.676735" lon="6.372265">
        <ele>307.279000</ele>
        <time>2009-02-19T23:08:38Z</time>
      </trkpt>
      <trkpt lat="50.676915" lon="6.371938">
        <ele>308.720000</ele>
        <time>2009-02-19T23:09:07Z</time>
      </trkpt>
      <trkpt lat="50.677423" lon="6.371220">
        <ele>314.488000</ele>
        <time>2009-02-19T23:10:19Z</time>
      </trkpt>
      <trkpt lat="50.677473" lon="6.370592">
        <ele>317.372000</ele>
        <time>2009-02-19T23:11:01Z</time>
      </trkpt>
      <trkpt lat="50.677545" lon="6.370242">
        <ele>319.295000</ele>
        <time>2009-02-19T23:11:26Z</time>
      </trkpt>
      <trkpt lat="50.677525" lon="6.369988">
        <ele>320.737000</ele>
        <time>2009-02-19T23:11:43Z</time>
      </trkpt>
      <trkpt lat="50.677702" lon="6.368838">
        <ele>326.986000</ele>
        <time>2009-02-19T23:13:02Z</time>
      </trkpt>
      <trkpt lat="50.677762" lon="6.368447">
        <ele>328.908000</ele>
        <time>2009-02-19T23:13:29Z</time>
      </trkpt>
      <trkpt lat="50.677808" lon="6.368273">
        <ele>330.831000</ele>
        <time>2009-02-19T23:13:41Z</time>
      </trkpt>
      <trkpt lat="50.678078" lon="6.367418">
        <ele>333.234000</ele>
        <time>2009-02-19T23:14:45Z</time>
      </trkpt>
      <trkpt lat="50.678173" lon="6.366837">
        <ele>336.118000</ele>
        <time>2009-02-19T23:15:25Z</time>
      </trkpt>
      <trkpt lat="50.678323" lon="6.365937">
        <ele>339.483000</ele>
        <time>2009-02-19T23:16:27Z</time>
      </trkpt>
      <trkpt lat="50.678322" lon="6.365633">
        <ele>340.925000</ele>
        <time>2009-02-19T23:16:47Z</time>
      </trkpt>
      <trkpt lat="50.678550" lon="6.364623">
        <ele>343.809000</ele>
        <time>2009-02-19T23:17:59Z</time>
      </trkpt>
      <trkpt lat="50.678785" lon="6.363392">
        <ele>345.731000</ele>
        <time>2009-02-19T23:19:25Z</time>
      </trkpt>
      <trkpt lat="50.678900" lon="6.363062">
        <ele>346.693000</ele>
        <time>2009-02-19T23:19:50Z</time>
      </trkpt>
      <trkpt lat="50.679105" lon="6.362583">
        <ele>346.693000</ele>
        <time>2009-02-19T23:20:29Z</time>
      </trkpt>
      <trkpt lat="50.679352" lon="6.362347">
        <ele>344.770000</ele>
        <time>2009-02-19T23:20:59Z</time>
      </trkpt>
      <trkpt lat="50.679632" lon="6.361957">
        <ele>342.367000</ele>
        <time>2009-02-19T23:21:38Z</time>
      </trkpt>
      <trkpt lat="50.679760" lon="6.361982">
        <ele>341.405000</ele>
        <time>2009-02-19T23:21:52Z</time>
      </trkpt>
      <trkpt lat="50.680005" lon="6.362142">
        <ele>343.328000</ele>
        <time>2009-02-19T23:22:20Z</time>
      </trkpt>
      <trkpt lat="50.680068" lon="6.362385">
        <ele>344.770000</ele>
        <time>2009-02-19T23:22:37Z</time>
      </trkpt>
      <trkpt lat="50.679597" lon="6.364387">
        <ele>346.693000</ele>
        <time>2009-02-19T23:25:00Z</time>
      </trkpt>
      <trkpt lat="50.679568" lon="6.365895">
        <ele>354.383000</ele>
        <time>2009-02-19T23:26:41Z</time>
      </trkpt>
      <trkpt lat="50.679447" lon="6.367410">
        <ele>360.151000</ele>
        <time>2009-02-19T23:28:23Z</time>
      </trkpt>
      <trkpt lat="50.679357" lon="6.367873">
        <ele>363.516000</ele>
        <time>2009-02-19T23:28:55Z</time>
      </trkpt>
      <trkpt lat="50.679340" lon="6.368378">
        <ele>364.477000</ele>
        <time>2009-02-19T23:29:29Z</time>
      </trkpt>
      <trkpt lat="50.679302" lon="6.368750">
        <ele>361.593000</ele>
        <time>2009-02-19T23:29:54Z</time>
      </trkpt>
      <trkpt lat="50.679172" lon="6.369182">
        <ele>358.709000</ele>
        <time>2009-02-19T23:30:26Z</time>
      </trkpt>
      <trkpt lat="50.679073" lon="6.369940">
        <ele>355.825000</ele>
        <time>2009-02-19T23:31:17Z</time>
      </trkpt>
      <trkpt lat="50.679133" lon="6.370083">
        <ele>354.383000</ele>
        <time>2009-02-19T23:31:29Z</time>
      </trkpt>
      <trkpt lat="50.679253" lon="6.370240">
        <ele>353.422000</ele>
        <time>2009-02-19T23:31:45Z</time>
      </trkpt>
      <trkpt lat="50.679120" lon="6.370243">
        <ele>351.018000</ele>
        <time>2009-02-19T23:31:59Z</time>
      </trkpt>
      <trkpt lat="50.678848" lon="6.370123">
        <ele>349.096000</ele>
        <time>2009-02-19T23:32:29Z</time>
      </trkpt>
      <trkpt lat="50.678933" lon="6.370247">
        <ele>347.173000</ele>
        <time>2009-02-19T23:32:41Z</time>
      </trkpt>
      <trkpt lat="50.679018" lon="6.370290">
        <ele>346.693000</ele>
        <time>2009-02-19T23:32:51Z</time>
      </trkpt>
      <trkpt lat="50.679433" lon="6.370833">
        <ele>345.731000</ele>
        <time>2009-02-19T23:33:48Z</time>
      </trkpt>
      <trkpt lat="50.679763" lon="6.371317">
        <ele>346.693000</ele>
        <time>2009-02-19T23:34:35Z</time>
      </trkpt>
      <trkpt lat="50.679842" lon="6.371498">
        <ele>346.693000</ele>
        <time>2009-02-19T23:34:50Z</time>
      </trkpt>
      <trkpt lat="50.679965" lon="6.371585">
        <ele>346.693000</ele>
        <time>2009-02-19T23:35:04Z</time>
      </trkpt>
      <trkpt lat="50.680115" lon="6.371917">
        <ele>342.847000</ele>
        <time>2009-02-19T23:35:31Z</time>
      </trkpt>
      <trkpt lat="50.680220" lon="6.371952">
        <ele>344.770000</ele>
        <time>2009-02-19T23:35:42Z</time>
      </trkpt>
      <trkpt lat="50.680427" lon="6.372145">
        <ele>348.135000</ele>
        <time>2009-02-19T23:36:08Z</time>
      </trkpt>
      <trkpt lat="50.680115" lon="6.372558">
        <ele>341.886000</ele>
        <time>2009-02-19T23:36:51Z</time>
      </trkpt>
      <trkpt lat="50.680013" lon="6.372573">
        <ele>340.444000</ele>
        <time>2009-02-19T23:37:01Z</time>
      </trkpt>
      <trkpt lat="50.679697" lon="6.372427">
        <ele>335.637000</ele>
        <time>2009-02-19T23:37:36Z</time>
      </trkpt>
      <trkpt lat="50.678173" lon="6.371207">
        <ele>316.892000</ele>
        <time>2009-02-19T23:40:36Z</time>
      </trkpt>
      <trkpt lat="50.676395" lon="6.373758">
        <ele>293.820000</ele>
        <time>2009-02-19T23:44:49Z</time>
      </trkpt>
      <trkpt lat="50.676112" lon="6.374133">
        <ele>293.820000</ele>
        <time>2009-02-19T23:45:28Z</time>
      </trkpt>
      <trkpt lat="50.675630" lon="6.374522">
        <ele>289.975000</ele>
        <time>2009-02-19T23:46:25Z</time>
      </trkpt>
      <trkpt lat="50.675160" lon="6.375095">
        <ele>284.688000</ele>
        <time>2009-02-19T23:47:28Z</time>
      </trkpt>
      <trkpt lat="50.675075" lon="6.375592">
        <ele>285.168000</ele>
        <time>2009-02-19T23:48:02Z</time>
      </trkpt>
      <trkpt lat="50.674888" lon="6.376175">
        <ele>285.168000</ele>
        <time>2009-02-19T23:48:46Z</time>
      </trkpt>
      <trkpt lat="50.673775" lon="6.378328">
        <ele>287.571000</ele>
        <time>2009-02-19T23:51:51Z</time>
      </trkpt>
      <trkpt lat="50.673698" lon="6.378473">
        <ele>287.091000</ele>
        <time>2009-02-19T23:52:04Z</time>
      </trkpt>
      <trkpt lat="50.673618" lon="6.378915">
        <ele>287.091000</ele>
        <time>2009-02-19T23:52:35Z</time>
      </trkpt>
      <trkpt lat="50.673622" lon="6.379597">
        <ele>286.610000</ele>
        <time>2009-02-19T23:53:20Z</time>
      </trkpt>
      <trkpt lat="50.673920" lon="6.380617">
        <ele>286.610000</ele>
        <time>2009-02-19T23:54:35Z</time>
      </trkpt>
      <trkpt lat="50.673942" lon="6.380768">
        <ele>286.130000</ele>
        <time>2009-02-19T23:54:46Z</time>
      </trkpt>
      <trkpt lat="50.673917" lon="6.381130">
        <ele>285.168000</ele>
        <time>2009-02-19T23:55:10Z</time>
      </trkpt>
      <trkpt lat="50.673767" lon="6.381705">
        <ele>278.439000</ele>
        <time>2009-02-19T23:55:51Z</time>
      </trkpt>
      <trkpt lat="50.673425" lon="6.383357">
        <ele>268.826000</ele>
        <time>2009-02-19T23:57:47Z</time>
      </trkpt>
      <trkpt lat="50.673007" lon="6.384407">
        <ele>266.903000</ele>
        <time>2009-02-19T23:59:10Z</time>
      </trkpt>
      <trkpt lat="50.672783" lon="6.384773">
        <ele>266.903000</ele>
        <time>2009-02-19T23:59:44Z</time>
      </trkpt>
      <trkpt lat="50.672672" lon="6.384855">
        <ele>267.384000</ele>
        <time>2009-02-19T23:59:57Z</time>
      </trkpt>
      <trkpt lat="50.672572" lon="6.385015">
        <ele>266.903000</ele>
        <time>2009-02-20T00:00:12Z</time>
      </trkpt>
      <trkpt lat="50.672508" lon="6.385307">
        <ele>266.903000</ele>
        <time>2009-02-20T00:00:33Z</time>
      </trkpt>
      <trkpt lat="50.672535" lon="6.385817">
        <ele>266.903000</ele>
        <time>2009-02-20T00:01:07Z</time>
      </trkpt>
      <trkpt lat="50.672635" lon="6.386138">
        <ele>266.903000</ele>
        <time>2009-02-20T00:01:31Z</time>
      </trkpt>
      <trkpt lat="50.672762" lon="6.386230">
        <ele>266.903000</ele>
        <time>2009-02-20T00:01:45Z</time>
      </trkpt>
      <trkpt lat="50.672843" lon="6.386510">
        <ele>266.422000</ele>
        <time>2009-02-20T00:02:06Z</time>
      </trkpt>
      <trkpt lat="50.672930" lon="6.386433">
        <ele>265.942000</ele>
        <time>2009-02-20T00:02:16Z</time>
      </trkpt>
      <trkpt lat="50.673022" lon="6.386482">
        <ele>265.942000</ele>
        <time>2009-02-20T00:02:27Z</time>
      </trkpt>
      <trkpt lat="50.673192" lon="6.386692">
        <ele>264.981000</ele>
        <time>2009-02-20T00:02:50Z</time>
      </trkpt>
      <trkpt lat="50.673375" lon="6.386827">
        <ele>264.019000</ele>
        <time>2009-02-20T00:03:11Z</time>
      </trkpt>
      <trkpt lat="50.673457" lon="6.386972">
        <ele>263.058000</ele>
        <time>2009-02-20T00:03:24Z</time>
      </trkpt>
      <trkpt lat="50.673447" lon="6.387180">
        <ele>262.097000</ele>
        <time>2009-02-20T00:03:38Z</time>
      </trkpt>
      <trkpt lat="50.673360" lon="6.387305">
        <ele>261.616000</ele>
        <time>2009-02-20T00:03:50Z</time>
      </trkpt>
      <trkpt lat="50.672927" lon="6.387563">
        <ele>261.616000</ele>
        <time>2009-02-20T00:04:39Z</time>
      </trkpt>
      <trkpt lat="50.672830" lon="6.387665">
        <ele>262.097000</ele>
        <time>2009-02-20T00:04:51Z</time>
      </trkpt>
      <trkpt lat="50.672842" lon="6.387805">
        <ele>262.577000</ele>
        <time>2009-02-20T00:05:00Z</time>
      </trkpt>
      <trkpt lat="50.673022" lon="6.388037">
        <ele>264.981000</ele>
        <time>2009-02-20T00:05:25Z</time>
      </trkpt>
      <trkpt lat="50.673643" lon="6.388567">
        <ele>270.268000</ele>
        <time>2009-02-20T00:06:39Z</time>
      </trkpt>
      <trkpt lat="50.673915" lon="6.388752">
        <ele>271.710000</ele>
        <time>2009-02-20T00:07:11Z</time>
      </trkpt>
      <trkpt lat="50.674065" lon="6.388755">
        <ele>272.671000</ele>
        <time>2009-02-20T00:07:26Z</time>
      </trkpt>
      <trkpt lat="50.674112" lon="6.388822">
        <ele>273.152000</ele>
        <time>2009-02-20T00:07:33Z</time>
      </trkpt>
      <trkpt lat="50.674020" lon="6.388878">
        <ele>274.594000</ele>
        <time>2009-02-20T00:07:43Z</time>
      </trkpt>
      <trkpt lat="50.673492" lon="6.388898">
        <ele>277.478000</ele>
        <time>2009-02-20T00:08:39Z</time>
      </trkpt>
      <trkpt lat="50.672602" lon="6.388787">
        <ele>282.765000</ele>
        <time>2009-02-20T00:10:13Z</time>
      </trkpt>
      <trkpt lat="50.671592" lon="6.388817">
        <ele>291.417000</ele>
        <time>2009-02-20T00:12:00Z</time>
      </trkpt>
      <trkpt lat="50.671502" lon="6.388823">
        <ele>292.378000</ele>
        <time>2009-02-20T00:12:09Z</time>
      </trkpt>
      <trkpt lat="50.671398" lon="6.388897">
        <ele>293.820000</ele>
        <time>2009-02-20T00:12:21Z</time>
      </trkpt>
      <trkpt lat="50.671388" lon="6.389033">
        <ele>295.743000</ele>
        <time>2009-02-20T00:12:30Z</time>
      </trkpt>
      <trkpt lat="50.672520" lon="6.390188">
        <ele>306.798000</ele>
        <time>2009-02-20T00:14:52Z</time>
      </trkpt>
      <trkpt lat="50.672618" lon="6.390203">
        <ele>307.279000</ele>
        <time>2009-02-20T00:15:03Z</time>
      </trkpt>
      <trkpt lat="50.672915" lon="6.390118">
        <ele>309.201000</ele>
        <time>2009-02-20T00:15:34Z</time>
      </trkpt>
      <trkpt lat="50.673223" lon="6.390123">
        <ele>311.124000</ele>
        <time>2009-02-20T00:16:07Z</time>
      </trkpt>
      <trkpt lat="50.674520" lon="6.389927">
        <ele>320.737000</ele>
        <time>2009-02-20T00:18:24Z</time>
      </trkpt>
      <trkpt lat="50.674688" lon="6.389877">
        <ele>320.737000</ele>
        <time>2009-02-20T00:18:42Z</time>
      </trkpt>
      <trkpt lat="50.674992" lon="6.389582">
        <ele>322.660000</ele>
        <time>2009-02-20T00:19:20Z</time>
      </trkpt>
      <trkpt lat="50.675278" lon="6.389510">
        <ele>322.179000</ele>
        <time>2009-02-20T00:19:50Z</time>
      </trkpt>
      <trkpt lat="50.675393" lon="6.389532">
        <ele>321.698000</ele>
        <time>2009-02-20T00:20:02Z</time>
      </trkpt>
      <trkpt lat="50.676015" lon="6.390135">
        <ele>318.814000</ele>
        <time>2009-02-20T00:21:19Z</time>
      </trkpt>
      <trkpt lat="50.676358" lon="6.390438">
        <ele>319.295000</ele>
        <time>2009-02-20T00:22:01Z</time>
      </trkpt>
      <trkpt lat="50.676573" lon="6.390585">
        <ele>319.776000</ele>
        <time>2009-02-20T00:22:25Z</time>
      </trkpt>
      <trkpt lat="50.676928" lon="6.390617">
        <ele>320.737000</ele>
        <time>2009-02-20T00:23:03Z</time>
      </trkpt>
      <trkpt lat="50.677430" lon="6.390388">
        <ele>320.737000</ele>
        <time>2009-02-20T00:23:58Z</time>
      </trkpt>
      <trkpt lat="50.677938" lon="6.390227">
        <ele>319.295000</ele>
        <time>2009-02-20T00:24:53Z</time>
      </trkpt>
      <trkpt lat="50.678383" lon="6.390140">
        <ele>319.295000</ele>
        <time>2009-02-20T00:25:40Z</time>
      </trkpt>
      <trkpt lat="50.678475" lon="6.390223">
        <ele>319.295000</ele>
        <time>2009-02-20T00:25:51Z</time>
      </trkpt>
      <trkpt lat="50.678585" lon="6.390558">
        <ele>317.372000</ele>
        <time>2009-02-20T00:26:16Z</time>
      </trkpt>
      <trkpt lat="50.678685" lon="6.391098">
        <ele>314.008000</ele>
        <time>2009-02-20T00:26:54Z</time>
      </trkpt>
      <trkpt lat="50.678787" lon="6.392468">
        <ele>313.047000</ele>
        <time>2009-02-20T00:28:26Z</time>
      </trkpt>
      <trkpt lat="50.679113" lon="6.393472">
        <ele>313.047000</ele>
        <time>2009-02-20T00:29:41Z</time>
      </trkpt>
      <trkpt lat="50.679163" lon="6.393797">
        <ele>313.527000</ele>
        <time>2009-02-20T00:30:04Z</time>
      </trkpt>
      <trkpt lat="50.679140" lon="6.393952">
        <ele>313.527000</ele>
        <time>2009-02-20T00:30:14Z</time>
      </trkpt>
      <trkpt lat="50.678837" lon="6.394665">
        <ele>311.604000</ele>
        <time>2009-02-20T00:31:11Z</time>
      </trkpt>
      <trkpt lat="50.678585" lon="6.395535">
        <ele>312.085000</ele>
        <time>2009-02-20T00:32:15Z</time>
      </trkpt>
      <trkpt lat="50.678392" lon="6.397997">
        <ele>311.124000</ele>
        <time>2009-02-20T00:35:01Z</time>
      </trkpt>
      <trkpt lat="50.677612" lon="6.399178">
        <ele>313.527000</ele>
        <time>2009-02-20T00:36:55Z</time>
      </trkpt>
      <trkpt lat="50.675483" lon="6.401692">
        <ele>324.102000</ele>
        <time>2009-02-20T00:41:35Z</time>
      </trkpt>
      <trkpt lat="50.675002" lon="6.402880">
        <ele>326.024000</ele>
        <time>2009-02-20T00:43:09Z</time>
      </trkpt>
      <trkpt lat="50.674183" lon="6.404755">
        <ele>333.234000</ele>
        <time>2009-02-20T00:45:41Z</time>
      </trkpt>
      <trkpt lat="50.674047" lon="6.404973">
        <ele>335.157000</ele>
        <time>2009-02-20T00:46:02Z</time>
      </trkpt>
      <trkpt lat="50.673795" lon="6.405168">
        <ele>337.079000</ele>
        <time>2009-02-20T00:46:31Z</time>
      </trkpt>
      <trkpt lat="50.671297" lon="6.404850">
        <ele>352.461000</ele>
        <time>2009-02-20T00:50:55Z</time>
      </trkpt>
      <trkpt lat="50.671072" lon="6.404868">
        <ele>354.383000</ele>
        <time>2009-02-20T00:51:19Z</time>
      </trkpt>
      <trkpt lat="50.670848" lon="6.404922">
        <ele>356.306000</ele>
        <time>2009-02-20T00:51:43Z</time>
      </trkpt>
      <trkpt lat="50.670637" lon="6.405045">
        <ele>357.748000</ele>
        <time>2009-02-20T00:52:06Z</time>
      </trkpt>
      <trkpt lat="50.670435" lon="6.405243">
        <ele>359.190000</ele>
        <time>2009-02-20T00:52:31Z</time>
      </trkpt>
      <trkpt lat="50.669858" lon="6.406183">
        <ele>360.151000</ele>
        <time>2009-02-20T00:53:59Z</time>
      </trkpt>
      <trkpt lat="50.669212" lon="6.406882">
        <ele>360.632000</ele>
        <time>2009-02-20T00:55:21Z</time>
      </trkpt>
      <trkpt lat="50.669053" lon="6.407472">
        <ele>363.996000</ele>
        <time>2009-02-20T00:56:04Z</time>
      </trkpt>
      <trkpt lat="50.668990" lon="6.407588">
        <ele>365.438000</ele>
        <time>2009-02-20T00:56:14Z</time>
      </trkpt>
      <trkpt lat="50.668705" lon="6.407810">
        <ele>368.803000</ele>
        <time>2009-02-20T00:56:48Z</time>
      </trkpt>
      <trkpt lat="50.667540" lon="6.408273">
        <ele>384.665000</ele>
        <time>2009-02-20T00:58:54Z</time>
      </trkpt>
      <trkpt lat="50.667160" lon="6.408347">
        <ele>389.471000</ele>
        <time>2009-02-20T00:59:35Z</time>
      </trkpt>
      <trkpt lat="50.666758" lon="6.408378">
        <ele>392.836000</ele>
        <time>2009-02-20T01:00:17Z</time>
      </trkpt>
      <trkpt lat="50.666337" lon="6.408130">
        <ele>393.317000</ele>
        <time>2009-02-20T01:01:05Z</time>
      </trkpt>
      <trkpt lat="50.666270" lon="6.407995">
        <ele>393.797000</ele>
        <time>2009-02-20T01:01:16Z</time>
      </trkpt>
      <trkpt lat="50.665680" lon="6.406932">
        <ele>404.852000</ele>
        <time>2009-02-20T01:02:50Z</time>
      </trkpt>
      <trkpt lat="50.665027" lon="6.405778">
        <ele>414.465000</ele>
        <time>2009-02-20T01:04:34Z</time>
      </trkpt>
      <trkpt lat="50.664922" lon="6.405650">
        <ele>415.427000</ele>
        <time>2009-02-20T01:04:48Z</time>
      </trkpt>
      <trkpt lat="50.664708" lon="6.405505">
        <ele>419.272000</ele>
        <time>2009-02-20T01:05:12Z</time>
      </trkpt>
      <trkpt lat="50.664515" lon="6.405227">
        <ele>422.637000</ele>
        <time>2009-02-20T01:05:40Z</time>
      </trkpt>
      <trkpt lat="50.664110" lon="6.404535">
        <ele>427.924000</ele>
        <time>2009-02-20T01:06:43Z</time>
      </trkpt>
      <trkpt lat="50.663827" lon="6.404172">
        <ele>431.289000</ele>
        <time>2009-02-20T01:07:21Z</time>
      </trkpt>
      <trkpt lat="50.663717" lon="6.404148">
        <ele>432.731000</ele>
        <time>2009-02-20T01:07:33Z</time>
      </trkpt>
      <trkpt lat="50.663695" lon="6.404295">
        <ele>434.653000</ele>
        <time>2009-02-20T01:07:43Z</time>
      </trkpt>
      <trkpt lat="50.663788" lon="6.405135">
        <ele>440.421000</ele>
        <time>2009-02-20T01:08:40Z</time>
      </trkpt>
      <trkpt lat="50.663768" lon="6.405625">
        <ele>442.824000</ele>
        <time>2009-02-20T01:09:12Z</time>
      </trkpt>
      <trkpt lat="50.663727" lon="6.405750">
        <ele>443.305000</ele>
        <time>2009-02-20T01:09:22Z</time>
      </trkpt>
      <trkpt lat="50.663613" lon="6.405752">
        <ele>445.228000</ele>
        <time>2009-02-20T01:09:34Z</time>
      </trkpt>
      <trkpt lat="50.663385" lon="6.405458">
        <ele>447.631000</ele>
        <time>2009-02-20T01:10:05Z</time>
      </trkpt>
      <trkpt lat="50.663252" lon="6.405460">
        <ele>448.592000</ele>
        <time>2009-02-20T01:10:19Z</time>
      </trkpt>
      <trkpt lat="50.663167" lon="6.405547">
        <ele>449.073000</ele>
        <time>2009-02-20T01:10:30Z</time>
      </trkpt>
      <trkpt lat="50.662555" lon="6.406358">
        <ele>451.957000</ele>
        <time>2009-02-20T01:11:54Z</time>
      </trkpt>
      <trkpt lat="50.662297" lon="6.406898">
        <ele>453.399000</ele>
        <time>2009-02-20T01:12:39Z</time>
      </trkpt>
      <trkpt lat="50.661940" lon="6.407463">
        <ele>457.244000</ele>
        <time>2009-02-20T01:13:32Z</time>
      </trkpt>
      <trkpt lat="50.661865" lon="6.407780">
        <ele>456.764000</ele>
        <time>2009-02-20T01:13:55Z</time>
      </trkpt>
      <trkpt lat="50.661300" lon="6.408753">
        <ele>455.322000</ele>
        <time>2009-02-20T01:15:23Z</time>
      </trkpt>
      <trkpt lat="50.661087" lon="6.409372">
        <ele>454.360000</ele>
        <time>2009-02-20T01:16:10Z</time>
      </trkpt>
      <trkpt lat="50.660993" lon="6.409472">
        <ele>454.360000</ele>
        <time>2009-02-20T01:16:22Z</time>
      </trkpt>
      <trkpt lat="50.660388" lon="6.409697">
        <ele>453.880000</ele>
        <time>2009-02-20T01:17:27Z</time>
      </trkpt>
      <trkpt lat="50.660165" lon="6.409813">
        <ele>454.360000</ele>
        <time>2009-02-20T01:17:52Z</time>
      </trkpt>
      <trkpt lat="50.659655" lon="6.410102">
        <ele>453.880000</ele>
        <time>2009-02-20T01:18:49Z</time>
      </trkpt>
      <trkpt lat="50.659583" lon="6.410200">
        <ele>453.399000</ele>
        <time>2009-02-20T01:18:59Z</time>
      </trkpt>
      <trkpt lat="50.659607" lon="6.410348">
        <ele>452.918000</ele>
        <time>2009-02-20T01:19:10Z</time>
      </trkpt>
      <trkpt lat="50.659678" lon="6.410490">
        <ele>452.438000</ele>
        <time>2009-02-20T01:19:22Z</time>
      </trkpt>
      <trkpt lat="50.659658" lon="6.410648">
        <ele>452.438000</ele>
        <time>2009-02-20T01:19:32Z</time>
      </trkpt>
      <trkpt lat="50.659410" lon="6.411278">
        <ele>448.592000</ele>
        <time>2009-02-20T01:20:22Z</time>
      </trkpt>
      <trkpt lat="50.659073" lon="6.412347">
        <ele>438.499000</ele>
        <time>2009-02-20T01:21:42Z</time>
      </trkpt>
      <trkpt lat="50.658915" lon="6.412778">
        <ele>434.653000</ele>
        <time>2009-02-20T01:22:15Z</time>
      </trkpt>
      <trkpt lat="50.658748" lon="6.413055">
        <ele>431.769000</ele>
        <time>2009-02-20T01:22:40Z</time>
      </trkpt>
      <trkpt lat="50.658662" lon="6.413143">
        <ele>431.769000</ele>
        <time>2009-02-20T01:22:51Z</time>
      </trkpt>
      <trkpt lat="50.658530" lon="6.413165">
        <ele>432.250000</ele>
        <time>2009-02-20T01:23:05Z</time>
      </trkpt>
      <trkpt lat="50.658130" lon="6.412947">
        <ele>438.499000</ele>
        <time>2009-02-20T01:23:50Z</time>
      </trkpt>
      <trkpt lat="50.657728" lon="6.412812">
        <ele>442.344000</ele>
        <time>2009-02-20T01:24:33Z</time>
      </trkpt>
      <trkpt lat="50.657612" lon="6.412720">
        <ele>442.344000</ele>
        <time>2009-02-20T01:24:47Z</time>
      </trkpt>
      <trkpt lat="50.657490" lon="6.412717">
        <ele>443.305000</ele>
        <time>2009-02-20T01:25:00Z</time>
      </trkpt>
      <trkpt lat="50.656958" lon="6.413037">
        <ele>441.863000</ele>
        <time>2009-02-20T01:26:00Z</time>
      </trkpt>
    </trkseg>
  </trk>

</gpx>
